LIEELIMC

Guest
Details From LIEE - Cagliari Elmas
To LIMC - Milano Malpensa
Flight Number -
Tags generated
Created
Modified
Stats Distance 385 nm / 713 km
Max Altitude 34,000 ft / 10,363 m
Waypoints 10
Social Downloads 0
Likes 0
Share VATSIM

Download

Looking for another format? Having issues loading an existing format? Contact us
Advertisement - Login to hide

Notes

Basic altitude profile: - Ascent Rate: 2500ft/min - Ascent Speed: 250kts - Cruise Altitude: 35000ft - Cruise Speed: 420kts - Descent Rate: 1500ft/min - Descent Speed: 250kts

Route

LIEE MINKA UM858 CORSI UM733 AJO UM858 UNITA LIMC

ID Type Via Altitude Latitude Longitude Leg Dist Tot Dist Heading (true) Name
O LIEE APT - 0 ft / 0 m 39.25147˚ 9.05429˚ - 0 nm - Cagliari Elmas
MINKA FIX - 32,700 ft / 9,967 m 40.81917˚ 8.85556˚ 94 nm 94 nm 355° / 354° -
CORSI FIX UM858 (AWY-HI) 34,000 ft / 10,363 m 41.33333˚ 8.81222˚ 30 nm 125 nm 356° / 356° -
AJO VOR UM733 (AWY-HI) 34,000 ft / 10,363 m 41.77053˚ 8.77467˚ 26 nm 151 nm 356° / 356° AJACCIO VOR-DME
SUDAS FIX UM858 (AWY-HI) 33,800 ft / 10,302 m 42.93806˚ 8.90639˚ 70 nm 222 nm 5° / 5° -
AKUTI FIX UM858 (AWY-HI) 31,100 ft / 9,479 m 43.22722˚ 8.94028˚ 17 nm 239 nm 5° / 5° -
TORTU FIX UM858 (AWY-HI) 29,000 ft / 8,839 m 43.38833˚ 8.95833˚ 9 nm 249 nm 5° / 5° -
OLETI FIX UM858 (AWY-HI) 23,600 ft / 7,193 m 43.81000˚ 9.00861˚ 25 nm 274 nm 5° / 5° -
UNITA FIX UM858 (AWY-HI) 21,800 ft / 6,645 m 43.94444˚ 9.02500˚ 8 nm 282 nm 5° / 5° -
O LIMC APT - 0 ft / 0 m 45.63061˚ 8.72811˚ 102 nm 384 nm 353° / 353° Milano Malpensa

Altitude Profile

Advertisement - Login to hide

Weather


0- 5 10 15 20 25 30 35+ Temperature / ° C

Clouds and Precipitation
Forecast for 2018-05-23 00:00 UTC. Updated 40 minutes ago

Ground ~20,000 ft ~40,000 ft Winds

LIEE

Details ICAO LIEE (CAG)
Name Cagliari Elmas
Region Italy
Timezone Europe/Rome (UTC+2.0)
Stats Elevation 13 ft / 4 m (AMSL)
Location 39.251475° 9.054291°
Runways 1
Magnetic Variation 2.342° E

METAR

LIEE 222350Z 36003KT 320V030 9999 FEW030 16/14 Q1016

Decode

TAF

TAF LIEE 222300Z 2300/2324 33010KT 9999 SCT030= TAF LIEO 222300Z 2300/2324 VRB06KT 9999 SCT030 BECMG 2310/2312 06010KT BECMG 2318/2320 VRB04KT

Decode

Departure Runways

ID Width Length Bearing (true) Bearing (mag) Surface Threshold Offset Overrun Length
14 148 ft / 45 m 9,157 ft / 2,791 m 138.08° 135.74° Asphalt 0 ft / 0 m 187 ft / 57 m
32 148 ft / 45 m 9,157 ft / 2,791 m 318.09° 315.75° Asphalt 0 ft / 0 m 0 ft / 0 m

LIMC

Details ICAO LIMC (MXP)
Name Milano Malpensa
Region Italy
Timezone Europe/Rome (UTC+2.0)
Stats Elevation 767 ft / 234 m (AMSL)
Location 45.630606° 8.728111°
Runways 2
Magnetic Variation 2.428° E

METAR

LIMC 222350Z VRB02KT 9999 BKN050 15/14 Q1016 NOSIG

Decode

TAF

TAF LIMC 222300Z 2300/2406 VRB05KT 9999 SCT025 BKN060 PROB40 TEMPO 2300/2302 4000 TSRA

Decode

Destination Runways

ID Width Length Bearing (true) Bearing (mag) Surface Threshold Offset Overrun Length
17L 197 ft / 60 m 12,869 ft / 3,923 m 169.62° 167.19° Asphalt 3,094 ft / 943 m 0 ft / 0 m
17R 197 ft / 60 m 12,869 ft / 3,923 m 169.62° 167.19° Asphalt 0 ft / 0 m 0 ft / 0 m
35L 197 ft / 60 m 12,869 ft / 3,923 m 349.62° 347.19° Asphalt 1,329 ft / 405 m 0 ft / 0 m
35R 197 ft / 60 m 12,869 ft / 3,923 m 349.62° 347.19° Asphalt 0 ft / 0 m 0 ft / 0 m

Approach Navaids

Runway Type Ident Frequency Range Bearing (true) Bearing (mag) Slope Elevation
17L Localiser IMSL 110.75 MHz 20 nm / 37 km 169.59° 167.16° - 697 ft / 212 m (AMSL)
17L Glidescope IMSL 110.75 MHz 10 nm / 19 km 169.62° 167.19° 3.00° 792 ft / 241 m (AMSL)
17L DME IMSL 110.75 MHz 25 nm / 46 km - - - 792 ft / 241 m (AMSL)
35L Localiser IMA 109.10 MHz 18 nm / 33 km 349.59° 347.16° - 767 ft / 234 m (AMSL)
35L Glidescope IMA 109.10 MHz 10 nm / 19 km 349.62° 347.19° 3.00° 768 ft / 234 m (AMSL)
35L DME IMA 109.10 MHz 25 nm / 46 km - - - 768 ft / 234 m (AMSL)
35R Localiser MLP 109.90 MHz 18 nm / 33 km 349.07° 346.64° - 780 ft / 238 m (AMSL)
35R Glidescope MLP 109.90 MHz 10 nm / 19 km 349.62° 347.19° 3.00° 740 ft / 226 m (AMSL)
35R DME MLP 109.90 MHz 18 nm / 33 km - - - 713 ft / 217 m (AMSL)

Popular Alternatives